Time;durP1;ratioP1;P1;durP2;ratioP2;P2;SDS_P1;SDS_P2;PMS_P1;PMS_P2;Temp;Humidity;BMP_temperature;BMP_pressure;BME280_temperature;BME280_humidity;BME280_pressure;Samples;Min_cycle;Max_cycle;Signal;HPM_P1;HPM_P2
2021/10/05 00:04:15;;;;;;;32.35;21.57;;;;;;;6.48;100.00;100217.44;1581687;88;21139;-68
2021/10/05 00:06:59;;;;;;;38.90;20.90;;;;;;;6.47;100.00;100218.28;1596406;88;21032;-69
2021/10/05 00:09:43;;;;;;;33.50;20.45;;;;;;;6.47;100.00;100217.39;1595146;88;20935;-69
2021/10/05 00:12:34;;;;;;;29.67;19.87;;;;;;;6.47;100.00;100220.02;1573306;89;21435;-69
2021/10/05 00:15:04;;;;;;;33.40;20.82;;;;;;;6.46;100.00;100216.50;1590854;89;21455;-68
2021/10/05 00:20:17;;;;;;;29.52;18.07;;;;;;;6.42;100.00;100208.09;1594728;88;21585;-69
2021/10/05 00:22:51;;;;;;;30.57;18.27;;;;;;;6.42;100.00;100207.20;1592393;88;20973;-69
2021/10/05 00:25:19;;;;;;;;;;;;;;;6.41;100.00;100205.44;1574966;89;21492;-68
2021/10/05 00:28:06;;;;;;;;;;;;;;;;;;;;;
2021/10/05 00:34:22;;;;;;;;;;;;;;;6.40;100.00;100201.03;1575923;89;21043;-69
2021/10/05 00:37:11;;;;;;;23.87;14.50;;;;;;;6.37;100.00;100205.77;1550295;89;20442;-68
2021/10/05 00:40:07;;;;;;;21.90;15.15;;;;;;;6.34;100.00;100199.14;1579040;89;20960;-70
2021/10/05 00:42:43;;;;;;;22.87;14.68;;;;;;;6.30;100.00;100199.48;1587627;89;21503;-70
2021/10/05 00:46:09;;;;;;;25.57;16.23;;;;;;;6.28;100.00;100206.83;1579040;89;20905;-71
2021/10/05 00:52:17;;;;;;;24.00;14.60;;;;;;;6.19;100.00;100203.95;1563508;90;21501;-70
2021/10/05 00:54:56;;;;;;;22.17;14.35;;;;;;;6.15;100.00;100202.98;1592363;89;21101;-70
2021/10/05 00:57:27;;;;;;;23.62;14.23;;;;;;;6.10;100.00;100205.86;1584819;89;20933;-70
2021/10/05 01:00:01;;;;;;;20.80;14.03;;;;;;;6.09;100.00;100211.95;1564730;90;21516;-71
2021/10/05 01:02:34;;;;;;;21.60;14.25;;;;;;;6.07;100.00;100208.81;1563475;90;21474;-68
2021/10/05 01:05:08;;;;;;;21.07;13.80;;;;;;;6.06;100.00;100212.28;1570439;90;20992;-70
2021/10/05 01:07:38;;;;;;;24.43;13.88;;;;;;;6.03;100.00;100212.19;1569750;90;21503;-70
2021/10/05 01:13:30;;;;;;;21.85;14.65;;;;;;;5.94;100.00;100204.95;1589514;90;21609;-70
2021/10/05 01:16:11;;;;;;;21.30;12.98;;;;;;;5.89;100.00;100216.61;1574022;90;20952;-69
2021/10/05 01:18:44;;;;;;;20.05;13.75;;;;;;;5.84;100.00;100212.94;1569809;89;21007;-69
2021/10/05 01:21:28;;;;;;;23.75;13.25;;;;;;;5.82;100.00;100218.55;1593693;88;21509;-70
2021/10/05 01:24:41;;;;;;;18.87;12.58;;;;;;;5.80;100.00;100221.54;1602010;88;21494;-70
2021/10/05 01:27:18;;;;;;;20.10;13.15;;;;;;;5.73;100.00;100218.69;1602153;88;20927;-70
2021/10/05 01:29:52;;;;;;;22.42;15.00;;;;;;;5.67;100.00;100218.94;1596964;88;20932;-70
2021/10/05 01:32:36;;;;;;;23.55;13.80;;;;;;;5.63;100.00;100227.55;1598103;89;21575;-69
2021/10/05 01:35:19;;;;;;;24.75;15.18;;;;;;;5.61;100.00;100226.61;1590587;89;21467;-70
2021/10/05 01:38:00;;;;;;;28.80;15.80;;;;;;;5.65;100.00;100236.33;1596579;89;20968;-69
2021/10/05 01:40:29;;;;;;;26.55;16.37;;;;;;;5.66;100.00;100236.80;1596041;88;21058;-68
2021/10/05 01:43:32;;;;;;;;;;;;;;;;;;;;;
2021/10/05 01:46:03;;;;;;;29.87;16.37;;;;;;;5.61;100.00;100247.55;1601261;88;20975;-69
2021/10/05 01:48:45;;;;;;;24.77;15.85;;;;;;;5.57;100.00;100246.98;1600987;87;21434;-70
2021/10/05 01:51:17;;;;;;;22.82;15.98;;;;;;;5.56;100.00;100249.55;1601738;88;20939;-70
2021/10/05 01:54:02;;;;;;;25.95;15.70;;;;;;;5.54;100.00;100252.12;1600338;89;21503;-70
2021/10/05 01:56:31;;;;;;;23.83;15.40;;;;;;;5.54;100.00;100254.74;1597938;89;21555;-70
2021/10/05 01:59:09;;;;;;;21.48;14.40;;;;;;;5.54;100.00;100256.05;1599695;89;20967;-70
2021/10/05 02:01:47;;;;;;;21.70;14.55;;;;;;;5.54;100.00;100253.43;1601924;88;21052;-70
2021/10/05 02:04:22;;;;;;;20.55;12.53;;;;;;;5.54;100.00;100253.43;1595940;89;21495;-70
2021/10/05 02:06:59;;;;;;;16.62;11.95;;;;;;;5.53;100.00;100258.20;1598377;88;21597;-70
2021/10/05 02:09:49;;;;;;;;;;;;;;;;;;;;;
2021/10/05 02:12:26;;;;;;;21.55;12.58;;;;;;;5.53;100.00;100257.31;1578203;90;21048;-70
2021/10/05 02:15:05;;;;;;;19.37;12.53;;;;;;;5.53;100.00;100256.89;1584620;89;21963;-70
2021/10/05 02:17:34;;;;;;;17.98;12.28;;;;;;;5.54;100.00;100256.47;1599675;88;20935;-70
2021/10/05 02:20:14;;;;;;;22.35;13.20;;;;;;;5.53;100.00;100258.62;1601354;88;20979;-68
2021/10/05 02:22:52;;;;;;;;;;;;;;;5.52;100.00;100251.19;1595445;88;21483;-68
2021/10/05 02:25:23;;;;;;;15.95;11.03;;;;;;;5.52;100.00;100259.04;1568182;89;20460;-68
2021/10/05 02:28:04;;;;;;;19.62;12.78;;;;;;;5.52;100.00;100260.77;1565300;90;21511;-65
2021/10/05 02:30:49;;;;;;;23.75;13.58;;;;;;;5.48;100.00;100259.78;1582208;89;21590;-72
2021/10/05 02:33:29;;;;;;;20.70;13.43;;;;;;;5.46;100.00;100261.88;1567538;89;21035;-67
2021/10/05 02:36:01;;;;;;;19.25;12.78;;;;;;;5.41;100.00;100249.96;1578616;89;21494;-68
2021/10/05 02:38:30;;;;;;;18.42;12.90;;;;;;;5.39;100.00;100263.41;1551775;90;21516;-68
2021/10/05 02:41:05;;;;;;;18.67;12.47;;;;;;;5.36;100.00;100264.63;1570196;91;21533;-69
2021/10/05 02:43:33;;;;;;;27.15;13.80;;;;;;;5.32;100.00;100258.41;1570188;91;20944;-66
2021/10/05 02:46:01;;;;;;;20.80;11.88;;;;;;;5.32;100.00;100263.64;1570209;91;20949;-66
2021/10/05 02:48:30;;;;;;;20.80;12.78;;;;;;;5.32;100.00;100266.25;1569595;90;21040;-67
2021/10/05 02:50:58;;;;;;;24.90;13.18;;;;;;;5.37;100.00;100269.02;1563178;90;21061;-67
2021/10/05 02:53:26;;;;;;;18.52;12.25;;;;;;;5.41;100.00;100267.39;1562928;90;21456;-69
2021/10/05 02:55:55;;;;;;;20.40;13.25;;;;;;;5.44;100.00;100274.92;1563424;90;20961;-67
2021/10/05 02:58:29;;;;;;;22.70;13.22;;;;;;;5.48;100.00;100271.56;1563620;90;21519;-69
2021/10/05 03:00:56;;;;;;;20.92;13.35;;;;;;;5.53;100.00;100277.83;1547565;91;20953;-66
2021/10/05 03:03:25;;;;;;;19.65;11.75;;;;;;;5.57;100.00;100279.70;1546984;91;21061;-66
2021/10/05 03:05:57;;;;;;;22.65;12.82;;;;;;;5.61;100.00;100276.34;1546220;92;21136;-68
2021/10/05 03:08:29;;;;;;;25.23;12.50;;;;;;;5.64;100.00;100276.86;1556322;90;21027;-69
2021/10/05 03:10:59;;;;;;;17.05;11.93;;;;;;;5.66;100.00;100273.87;1568680;90;21563;-68
2021/10/05 03:13:33;;;;;;;22.62;11.75;;;;;;;5.67;100.00;100277.84;1569920;91;20925;-69
2021/10/05 03:16:09;;;;;;;19.40;12.58;;;;;;;5.69;100.00;100277.50;1588436;89;21550;-68
2021/10/05 03:18:38;;;;;;;20.48;12.25;;;;;;;5.74;100.00;100271.52;1592395;89;21337;-69
2021/10/05 03:21:13;;;;;;;19.65;12.13;;;;;;;5.77;100.00;100275.54;1591731;89;20971;-68
2021/10/05 03:23:44;;;;;;;16.45;11.78;;;;;;;5.79;100.00;100273.86;1602928;88;21024;-70
2021/10/05 03:26:19;;;;;;;18.05;12.05;;;;;;;5.80;100.00;100273.02;1602369;88;21474;-68
2021/10/05 03:28:51;;;;;;;20.20;12.47;;;;;;;5.82;100.00;100276.15;1596123;88;21441;-67
2021/10/05 03:31:23;;;;;;;19.85;12.43;;;;;;;5.83;100.00;100280.55;1603795;88;21123;-67
2021/10/05 03:33:56;;;;;;;27.07;12.82;;;;;;;5.84;100.00;100274.47;1598037;88;21443;-69
2021/10/05 03:36:25;;;;;;;20.88;13.50;;;;;;;5.84;100.00;100273.58;1601785;87;21009;-67
2021/10/05 03:39:01;;;;;;;21.62;13.03;;;;;;;5.83;100.00;100274.42;1602735;87;21010;-68
2021/10/05 03:41:30;;;;;;;32.30;13.70;;;;;;;5.82;100.00;100275.27;1602828;87;20949;-68
2021/10/05 03:44:02;;;;;;;24.43;12.60;;;;;;;5.80;100.00;100272.59;1588504;88;21132;-66
2021/10/05 03:46:31;;;;;;;19.32;11.85;;;;;;;5.79;100.00;100285.64;1597684;88;20980;-66
2021/10/05 03:49:01;;;;;;;22.05;12.45;;;;;;;5.78;100.00;100286.48;1595718;88;21493;-68
2021/10/05 03:51:30;;;;;;;18.62;11.68;;;;;;;5.76;100.00;100285.13;1600745;87;20999;-68
2021/10/05 03:54:00;;;;;;;18.48;11.75;;;;;;;5.76;100.00;100286.86;1587092;89;20940;-70
2021/10/05 03:56:27;;;;;;;20.88;11.65;;;;;;;5.83;100.00;100282.27;1600559;87;21071;-70
2021/10/05 03:58:55;;;;;;;15.48;10.88;;;;;;;5.85;100.00;100284.09;1589223;89;20936;-71
2021/10/05 04:01:25;;;;;;;22.35;11.97;;;;;;;5.84;100.00;100283.63;1589828;90;21505;-70
2021/10/05 04:03:54;;;;;;;20.40;12.35;;;;;;;5.83;100.00;100288.82;1596186;89;21483;-70
2021/10/05 04:06:22;;;;;;;18.32;12.10;;;;;;;5.81;100.00;100280.92;1604560;88;21467;-70
2021/10/05 04:08:50;;;;;;;18.30;12.03;;;;;;;5.78;100.00;100295.23;1603567;89;21164;-70
2021/10/05 04:11:17;;;;;;;19.02;11.43;;;;;;;5.75;100.00;100296.86;1591559;89;20933;-71
2021/10/05 04:13:46;;;;;;;17.98;12.20;;;;;;;5.69;100.00;100302.38;1590651;89;21464;-69
2021/10/05 04:16:17;;;;;;;18.67;12.68;;;;;;;5.66;100.00;100308.78;1590706;90;20972;-69
2021/10/05 04:18:46;;;;;;;19.70;12.47;;;;;;;5.60;100.00;100305.08;1599719;89;21507;-70
2021/10/05 04:21:14;;;;;;;18.30;12.55;;;;;;;5.53;100.00;100310.55;1602875;87;21446;-69
2021/10/05 04:23:42;;;;;;;24.95;12.03;;;;;;;5.46;100.00;100311.60;1599619;88;20898;-69
2021/10/05 04:26:12;;;;;;;19.90;12.60;;;;;;;5.41;100.00;100309.25;1599793;89;20977;-69
2021/10/05 04:28:40;;;;;;;18.62;12.45;;;;;;;5.37;100.00;100310.46;1599854;89;21491;-71
2021/10/05 04:31:08;;;;;;;17.62;12.20;;;;;;;5.31;100.00;100313.30;1599041;89;21009;-70
2021/10/05 04:33:36;;;;;;;19.60;11.73;;;;;;;5.26;100.00;100312.25;1597486;89;21138;-69
2021/10/05 04:36:04;;;;;;;21.17;11.88;;;;;;;5.22;100.00;100307.76;1598098;89;21436;-69
2021/10/05 04:38:32;;;;;;;22.25;12.37;;;;;;;5.18;100.00;100312.38;1599122;88;20957;-68
2021/10/05 04:41:01;;;;;;;17.98;11.33;;;;;;;5.15;100.00;100313.59;1600270;88;20980;-69
2021/10/05 04:43:29;;;;;;;23.38;12.45;;;;;;;5.15;100.00;100314.48;1597361;89;20936;-69
2021/10/05 04:45:58;;;;;;;17.55;12.28;;;;;;;5.21;100.00;100321.26;1598601;89;21134;-68
2021/10/05 04:48:26;;;;;;;19.05;12.73;;;;;;;5.24;100.00;100321.36;1599226;87;20980;-69
2021/10/05 04:50:56;;;;;;;18.80;12.00;;;;;;;5.27;100.00;100321.87;1598250;89;20957;-69
2021/10/05 04:53:24;;;;;;;21.75;12.95;;;;;;;5.31;100.00;100326.38;1601624;89;21475;-69
2021/10/05 04:55:53;;;;;;;24.00;12.63;;;;;;;5.34;100.00;100332.60;1600143;89;20901;-68
2021/10/05 04:58:21;;;;;;;25.10;12.28;;;;;;;5.37;100.00;100334.02;1598673;89;21107;-69
2021/10/05 05:00:50;;;;;;;19.15;11.60;;;;;;;5.42;100.00;100342.43;1601019;89;20932;-68
2021/10/05 05:03:18;;;;;;;22.58;12.78;;;;;;;5.44;100.00;100332.48;1599067;89;20928;-68
2021/10/05 05:05:46;;;;;;;17.42;11.88;;;;;;;5.52;100.00;100337.97;1598202;89;20973;-68
2021/10/05 05:08:14;;;;;;;24.65;11.97;;;;;;;5.56;100.00;100338.54;1599117;88;21546;-69
2021/10/05 05:10:42;;;;;;;18.50;11.08;;;;;;;5.64;100.00;100347.11;1599148;89;21794;-69
2021/10/05 05:13:10;;;;;;;19.45;11.57;;;;;;;5.75;100.00;100347.49;1595663;89;21516;-69
2021/10/05 05:15:39;;;;;;;19.52;11.45;;;;;;;5.84;100.00;100348.20;1597405;89;20965;-69
2021/10/05 05:18:07;;;;;;;14.83;10.45;;;;;;;5.92;100.00;100355.91;1597625;88;20936;-70
2021/10/05 05:20:36;;;;;;;20.25;11.53;;;;;;;5.99;100.00;100353.53;1597440;88;21496;-71
2021/10/05 05:23:04;;;;;;;18.20;9.93;;;;;;;6.06;100.00;100346.76;1598025;89;21130;-70
2021/10/05 05:25:31;;;;;;;20.05;12.07;;;;;;;6.14;100.00;100353.12;1591118;89;20936;-70
2021/10/05 05:27:59;;;;;;;16.00;11.22;;;;;;;6.22;100.00;100354.70;1592247;89;20877;-70
2021/10/05 05:30:27;;;;;;;15.75;11.05;;;;;;;6.30;100.00;100361.05;1590587;89;20973;-71
2021/10/05 05:32:55;;;;;;;15.05;10.65;;;;;;;6.37;100.00;100356.88;1591084;88;20980;-71
2021/10/05 05:35:22;;;;;;;17.42;11.05;;;;;;;6.45;100.00;100361.51;1598431;88;21428;-69
2021/10/05 05:37:50;;;;;;;17.52;11.30;;;;;;;6.51;100.00;100364.31;1599013;88;20965;-70
2021/10/05 05:40:17;;;;;;;14.20;11.10;;;;;;;6.59;100.00;100364.53;1598980;89;20933;-71
2021/10/05 05:42:47;;;;;;;13.75;10.20;;;;;;;6.67;100.00;100368.72;1599110;88;21090;-70
2021/10/05 05:45:13;;;;;;;15.08;10.23;;;;;;;6.76;100.00;100376.42;1598985;89;20980;-70
2021/10/05 05:47:41;;;;;;;20.68;10.32;;;;;;;6.88;100.00;100373.27;1599205;89;21479;-70
2021/10/05 05:50:09;;;;;;;15.38;10.65;;;;;;;6.98;100.00;100374.41;1598915;88;20948;-70
2021/10/05 05:52:36;;;;;;;14.55;10.68;;;;;;;7.09;100.00;100379.52;1599194;88;21449;-69
2021/10/05 05:55:05;;;;;;;14.73;10.23;;;;;;;7.18;100.00;100388.56;1598983;88;21436;-69
2021/10/05 05:57:33;;;;;;;36.75;11.63;;;;;;;7.27;100.00;100386.61;1599241;88;21407;-68
2021/10/05 06:00:00;;;;;;;21.33;10.30;;;;;;;7.37;100.00;100391.67;1598945;89;21168;-69
2021/10/05 06:02:29;;;;;;;13.93;9.65;;;;;;;7.47;100.00;100396.31;1599226;88;21468;-70
2021/10/05 06:04:57;;;;;;;16.12;10.38;;;;;;;7.57;100.00;100401.88;1599022;88;21539;-69
2021/10/05 06:07:25;;;;;;;16.73;10.60;;;;;;;7.66;100.00;100400.34;1598968;88;20990;-70
2021/10/05 06:09:52;;;;;;;15.50;10.70;;;;;;;7.75;100.00;100405.82;1599102;88;21527;-69
2021/10/05 06:12:21;;;;;;;18.45;11.05;;;;;;;7.83;100.00;100409.10;1598976;88;21127;-68
2021/10/05 06:14:49;;;;;;;19.55;10.68;;;;;;;7.93;100.00;100411.53;1599169;88;21535;-70
2021/10/05 06:17:17;;;;;;;15.68;11.45;;;;;;;8.02;100.00;100410.44;1598985;88;21464;-70
2021/10/05 06:19:44;;;;;;;18.12;12.43;;;;;;;8.13;100.00;100412.04;1599145;89;21408;-71
2021/10/05 06:22:12;;;;;;;18.52;11.70;;;;;;;8.24;100.00;100413.60;1598975;89;20990;-70
2021/10/05 06:24:39;;;;;;;17.02;11.63;;;;;;;8.32;100.00;100412.92;1597745;88;21961;-70
2021/10/05 06:27:06;;;;;;;19.77;12.07;;;;;;;8.44;100.00;100414.98;1597525;88;21458;-70
2021/10/05 06:29:37;;;;;;;16.97;11.48;;;;;;;8.53;100.00;100411.70;1598126;88;20953;-70
2021/10/05 06:32:05;;;;;;;27.27;11.97;;;;;;;8.63;100.00;100406.67;1598032;88;20925;-72
2021/10/05 06:34:32;;;;;;;32.78;12.30;;;;;;;8.76;100.00;100403.88;1597602;89;21006;-70
2021/10/05 06:37:00;;;;;;;18.35;11.53;;;;;;;8.87;100.00;100409.36;1597404;89;21122;-70
2021/10/05 06:39:27;;;;;;;38.05;11.00;;;;;;;8.99;100.00;100406.58;1596333;88;20968;-71
2021/10/05 06:41:54;;;;;;;17.80;10.48;;;;;;;9.10;100.00;100409.00;1595809;88;20974;-70
2021/10/05 06:44:22;;;;;;;14.43;10.25;;;;;;;9.21;100.00;100416.21;1599958;88;20987;-70
2021/10/05 06:46:52;;;;;;;14.35;10.10;;;;;;;9.30;100.00;100417.70;1597075;88;21109;-70
2021/10/05 06:49:21;;;;;;;15.95;10.48;;;;;;;9.36;100.00;100421.34;1594559;88;21610;-70
2021/10/05 06:51:48;;;;;;;15.55;10.78;;;;;;;9.42;100.00;100427.16;1595464;87;21484;-71
2021/10/05 06:54:16;;;;;;;166.60;23.18;;;;;;;9.51;100.00;100420.77;1598973;89;20942;-70
2021/10/05 06:56:44;;;;;;;31.85;12.40;;;;;;;9.61;100.00;100417.44;1595946;88;20976;-70
2021/10/05 06:59:12;;;;;;;15.75;11.12;;;;;;;9.71;100.00;100414.54;1596792;88;20937;-70
2021/10/05 07:01:41;;;;;;;18.75;11.15;;;;;;;9.81;100.00;100419.10;1598771;89;21460;-70
2021/10/05 07:04:10;;;;;;;16.97;11.85;;;;;;;9.92;100.00;100421.48;1598390;89;20924;-70
2021/10/05 07:06:44;;;;;;;18.75;11.70;;;;;;;10.01;100.00;100419.03;1598292;89;20916;-70
2021/10/05 07:09:13;;;;;;;18.05;11.22;;;;;;;10.12;100.00;100423.59;1598924;89;20937;-70
2021/10/05 07:11:42;;;;;;;19.95;12.33;;;;;;;10.23;100.00;100427.32;1599361;89;20940;-70
2021/10/05 07:14:12;;;;;;;18.70;11.38;;;;;;;10.33;100.00;100426.59;1598580;89;21464;-70
2021/10/05 07:16:44;;;;;;;16.85;11.43;;;;;;;10.44;100.00;100430.74;1596320;88;20969;-70
2021/10/05 07:19:13;;;;;;;18.82;12.07;;;;;;;10.53;100.00;100432.19;1595173;88;21024;-71
2021/10/05 07:21:41;;;;;;;63.55;12.47;;;;;;;10.63;100.00;100427.50;1597634;88;20952;-70
2021/10/05 07:24:11;;;;;;;15.75;10.63;;;;;;;10.76;100.00;100428.55;1597745;88;20917;-70
2021/10/05 07:26:40;;;;;;;16.70;10.40;;;;;;;10.89;100.00;100422.59;1598847;89;21788;-71
2021/10/05 07:29:08;;;;;;;25.52;11.22;;;;;;;11.04;100.00;100426.75;1598673;89;20973;-71
2021/10/05 07:31:36;;;;;;;15.53;10.45;;;;;;;11.17;100.00;100427.34;1597603;88;20957;-71
2021/10/05 07:34:04;;;;;;;13.08;10.45;;;;;;;11.31;100.00;100426.19;1597076;88;20949;-69
2021/10/05 07:36:37;;;;;;;19.40;11.40;;;;;;;11.39;100.00;100425.86;1596557;88;21058;-70
2021/10/05 07:39:08;;;;;;;;;;;;;;;11.45;100.00;100418.00;1601530;89;21107;-70
2021/10/05 07:41:35;;;;;;;14.80;9.95;;;;;;;11.52;100.00;100429.09;1599971;88;20098;-70
2021/10/05 07:44:04;;;;;;;15.72;10.25;;;;;;;11.60;100.00;100426.52;1599529;88;20941;-69
2021/10/05 07:46:31;;;;;;;18.42;10.88;;;;;;;11.67;100.00;100425.70;1598605;89;21464;-69
2021/10/05 07:48:59;;;;;;;16.73;10.82;;;;;;;11.75;100.00;100425.78;1596981;88;21011;-70
2021/10/05 07:51:26;;;;;;;17.07;10.50;;;;;;;11.87;100.00;100428.60;1602168;88;21127;-71
2021/10/05 07:53:54;;;;;;;15.78;10.68;;;;;;;12.02;100.00;100435.78;1597704;88;21472;-70
2021/10/05 07:56:24;;;;;;;20.00;11.20;;;;;;;12.18;100.00;100433.27;1597805;88;21502;-71
2021/10/05 07:58:54;;;;;;;15.88;10.18;;;;;;;12.33;100.00;100435.17;1597374;88;21006;-70
2021/10/05 08:01:20;;;;;;;16.87;10.70;;;;;;;12.43;100.00;100426.42;1598130;88;20947;-70
2021/10/05 08:03:48;;;;;;;16.93;11.50;;;;;;;12.52;100.00;100421.19;1598960;89;21086;-71
2021/10/05 08:06:16;;;;;;;20.90;11.90;;;;;;;12.60;100.00;100422.56;1599328;88;20967;-71
2021/10/05 08:08:44;;;;;;;18.30;11.53;;;;;;;12.72;100.00;100421.73;1599380;89;21492;-71
2021/10/05 08:11:14;;;;;;;18.67;10.25;;;;;;;12.87;100.00;100417.88;1588617;89;21460;-70
2021/10/05 08:13:41;;;;;;;18.73;10.38;;;;;;;13.06;100.00;100414.87;1598550;89;20980;-71
2021/10/05 08:16:09;;;;;;;17.40;10.23;;;;;;;13.23;100.00;100423.80;1597946;88;21059;-70
2021/10/05 08:18:39;;;;;;;14.90;10.08;;;;;;;13.38;100.00;100421.66;1598858;89;20912;-71
2021/10/05 08:21:07;;;;;;;17.27;9.88;;;;;;;13.49;100.00;100415.94;1598867;88;20972;-70
2021/10/05 08:23:34;;;;;;;16.15;10.10;;;;;;;13.63;100.00;100424.81;1600569;88;21037;-71
2021/10/05 08:26:02;;;;;;;15.98;10.10;;;;;;;13.79;100.00;100419.11;1595548;89;20953;-70
2021/10/05 08:28:30;;;;;;;18.27;9.78;;;;;;;13.97;100.00;100417.80;1588330;88;21113;-70
2021/10/05 08:30:58;;;;;;;18.23;9.80;;;;;;;14.13;99.26;100425.31;1590467;88;20916;-72
2021/10/05 08:33:29;;;;;;;15.40;9.23;;;;;;;14.25;96.79;100421.80;1588201;89;20929;-70
2021/10/05 08:35:58;;;;;;;15.93;8.95;;;;;;;14.39;96.16;100421.34;1603952;89;21521;-71
2021/10/05 08:38:26;;;;;;;18.10;9.38;;;;;;;14.57;93.75;100415.14;1592655;89;20989;-71
2021/10/05 08:40:53;;;;;;;14.13;9.25;;;;;;;14.74;91.24;100415.57;1589793;89;21456;-71
2021/10/05 08:43:22;;;;;;;16.05;8.75;;;;;;;14.94;89.02;100419.48;1586595;89;20945;-71
2021/10/05 08:45:50;;;;;;;18.48;9.00;;;;;;;15.10;85.50;100413.66;1589396;88;20966;-71
2021/10/05 08:48:17;;;;;;;13.70;8.70;;;;;;;15.24;82.58;100410.53;1589321;89;20897;-70
2021/10/05 08:50:45;;;;;;;33.30;9.20;;;;;;;15.33;78.99;100422.44;1594866;88;20981;-72
2021/10/05 08:53:12;;;;;;;15.28;8.10;;;;;;;15.39;77.46;100410.44;1593413;88;21121;-71
2021/10/05 08:55:40;;;;;;;20.68;8.05;;;;;;;15.52;76.14;100412.58;1592485;89;20929;-71
2021/10/05 08:58:08;;;;;;;11.05;7.00;;;;;;;15.70;74.38;100415.19;1591283;89;21519;-72
2021/10/05 09:00:38;;;;;;;13.72;7.10;;;;;;;15.86;71.51;100416.41;1591573;89;20968;-72
2021/10/05 09:03:05;;;;;;;12.28;7.58;;;;;;;15.96;68.72;100418.98;1592525;89;21100;-71
2021/10/05 09:05:33;;;;;;;10.53;7.20;;;;;;;16.00;66.95;100418.06;1591750;89;21088;-72
2021/10/05 09:08:01;;;;;;;12.28;5.97;;;;;;;16.13;66.50;100422.88;1590606;88;21459;-72
2021/10/05 09:10:33;;;;;;;14.73;6.00;;;;;;;16.27;63.60;100422.75;1593368;89;20893;-71
2021/10/05 09:13:03;;;;;;;10.35;6.15;;;;;;;16.35;61.29;100419.11;1592887;89;20897;-71
2021/10/05 09:15:32;;;;;;;11.75;5.92;;;;;;;16.46;59.46;100425.67;1594110;89;21044;-71
2021/10/05 09:18:00;;;;;;;12.75;6.08;;;;;;;16.60;57.53;100421.56;1593279;89;21089;-71
2021/10/05 09:20:31;;;;;;;8.88;5.47;;;;;;;16.60;57.53;100421.56;1593524;88;20893;-71
2021/10/05 09:23:12;;;;;;;9.98;6.10;;;;;;;16.61;54.52;100419.34;1594412;89;21441;-71
2021/10/05 09:25:44;;;;;;;65.70;8.98;;;;;;;16.58;53.66;100425.58;1588645;88;20961;-71
2021/10/05 09:28:26;;;;;;;14.30;5.78;;;;;;;16.67;53.98;100419.30;1587758;89;21527;-71
2021/10/05 09:31:07;;;;;;;9.18;6.10;;;;;;;16.81;53.37;100430.69;1591237;90;21785;-72
2021/10/05 09:33:35;;;;;;;17.85;6.30;;;;;;;16.87;53.02;100419.08;1595156;88;20968;-71
2021/10/05 09:36:03;;;;;;;10.88;5.55;;;;;;;16.94;52.73;100421.66;1601739;88;21463;-71
2021/10/05 09:38:31;;;;;;;14.13;5.75;;;;;;;17.05;52.48;100412.67;1602095;89;20897;-71
2021/10/05 09:41:08;;;;;;;10.13;5.20;;;;;;;17.19;51.86;100407.59;1601801;89;20984;-71
2021/10/05 09:43:36;;;;;;;11.50;4.60;;;;;;;17.31;50.30;100406.55;1604506;88;21121;-71
2021/10/05 09:46:19;;;;;;;14.25;4.37;;;;;;;17.28;47.53;100403.92;1604173;89;21472;-71
2021/10/05 09:48:46;;;;;;;7.30;3.90;;;;;;;17.24;45.67;100403.53;1604083;88;21016;-71
2021/10/05 09:51:22;;;;;;;8.38;4.10;;;;;;;17.18;45.25;100407.16;1598968;89;20960;-72
2021/10/05 09:53:55;;;;;;;14.50;4.47;;;;;;;17.23;44.60;100404.44;1595909;88;20940;-71
2021/10/05 09:56:27;;;;;;;8.85;4.05;;;;;;;17.23;43.77;100407.98;1602396;89;21770;-72
2021/10/05 09:58:56;;;;;;;6.33;4.00;;;;;;;17.20;43.52;100403.14;1596246;89;20968;-72
2021/10/05 10:01:24;;;;;;;10.35;4.85;;;;;;;17.21;42.78;100400.46;1601849;87;21484;-72
2021/10/05 10:03:52;;;;;;;6.72;4.35;;;;;;;17.23;42.90;100401.77;1600642;89;21424;-71
2021/10/05 10:06:20;;;;;;;7.03;4.35;;;;;;;17.25;42.55;100405.30;1591872;89;20971;-72
2021/10/05 10:08:57;;;;;;;7.65;4.03;;;;;;;17.25;42.28;100403.52;1590804;90;21488;-72
2021/10/05 10:11:21;;;;;;;13.53;4.60;;;;;;;17.28;41.72;100394.14;1590806;89;20917;-72
2021/10/05 10:13:50;;;;;;;18.67;5.35;;;;;;;17.29;41.74;100389.23;1599395;88;20940;-72
2021/10/05 10:16:18;;;;;;;40.85;5.47;;;;;;;17.34;42.03;100385.63;1601000;87;21468;-72
2021/10/05 10:18:54;;;;;;;7.12;4.42;;;;;;;17.46;41.94;100390.33;1602028;89;20952;-72
2021/10/05 10:21:34;;;;;;;18.50;5.10;;;;;;;17.52;42.03;100391.61;1599372;89;21759;-71
2021/10/05 10:24:09;;;;;;;105.75;10.65;;;;;;;17.64;41.63;100383.88;1595698;88;20944;-73
2021/10/05 10:26:36;;;;;;;12.15;4.40;;;;;;;17.67;41.50;100385.64;1598828;89;20953;-71
2021/10/05 10:29:04;;;;;;;9.35;4.15;;;;;;;17.70;40.75;100379.81;1599275;89;20921;-71
2021/10/05 10:31:39;;;;;;;20.82;4.83;;;;;;;17.72;40.75;100380.66;1599852;89;20932;-72
2021/10/05 10:34:07;;;;;;;8.60;4.30;;;;;;;17.75;39.87;100379.73;1601951;89;21757;-71
2021/10/05 10:36:44;;;;;;;10.98;4.70;;;;;;;17.67;39.72;100384.31;1597615;88;21397;-71
2021/10/05 10:39:17;;;;;;;11.08;4.70;;;;;;;17.61;39.48;100379.91;1598232;88;20889;-71
2021/10/05 10:41:49;;;;;;;5.95;4.40;;;;;;;17.59;39.44;100371.94;1599337;88;21467;-71
2021/10/05 10:44:20;;;;;;;9.23;4.80;;;;;;;17.63;39.53;100375.44;1590208;89;20945;-72
2021/10/05 10:46:47;;;;;;;11.55;4.65;;;;;;;17.67;39.65;100373.64;1595659;89;21133;-71
2021/10/05 10:49:19;;;;;;;8.45;4.15;;;;;;;17.72;39.60;100369.11;1594804;89;20973;-72
2021/10/05 10:51:48;;;;;;;36.03;5.45;;;;;;;17.84;39.79;100371.58;1598423;89;28135;-73
2021/10/05 10:54:22;;;;;;;7.60;4.40;;;;;;;17.97;39.72;100362.45;1598315;89;21079;-72
2021/10/05 10:57:05;;;;;;;9.70;4.50;;;;;;;18.02;39.39;100367.75;1598185;89;21512;-72
2021/10/05 10:59:33;;;;;;;;;;;;;;;17.95;38.23;100366.94;1600164;89;21106;-72
2021/10/05 11:02:04;;;;;;;15.70;4.20;;;;;;;17.87;37.57;100371.53;1593928;88;20093;-74
2021/10/05 11:04:33;;;;;;;9.25;3.72;;;;;;;17.77;37.78;100353.91;1598872;88;21484;-74
2021/10/05 11:07:01;;;;;;;7.90;4.22;;;;;;;17.83;38.16;100356.02;1597724;89;21532;-74
2021/10/05 11:09:32;;;;;;;9.68;3.98;;;;;;;17.93;38.29;100348.28;1598675;88;20987;-68
2021/10/05 11:12:03;;;;;;;13.55;4.10;;;;;;;18.04;38.50;100345.45;1601100;88;21135;-65
2021/10/05 11:14:36;;;;;;;10.30;3.87;;;;;;;18.16;38.32;100346.58;1598925;88;20929;-65
2021/10/05 11:17:09;;;;;;;10.30;3.27;;;;;;;18.17;38.21;100351.00;1598370;89;20924;-66
2021/10/05 11:19:38;;;;;;;;;;;;;;;18.23;38.17;100351.34;1603997;89;20989;-66
2021/10/05 11:22:12;;;;;;;5.60;3.70;;;;;;;18.28;37.88;100353.48;1597844;89;20133;-67
2021/10/05 11:24:43;;;;;;;12.43;3.65;;;;;;;18.32;37.49;100351.63;1598425;89;21790;-66
2021/10/05 11:27:17;;;;;;;5.33;3.40;;;;;;;18.33;37.75;100334.70;1598416;89;20976;-67
2021/10/05 11:29:46;;;;;;;10.35;3.35;;;;;;;18.41;37.27;100340.31;1596829;89;21480;-65
2021/10/05 11:32:18;;;;;;;7.58;3.33;;;;;;;18.43;37.22;100338.95;1598152;89;20889;-66
2021/10/05 11:34:48;;;;;;;5.28;3.10;;;;;;;18.42;36.72;100335.86;1597635;89;21500;-65
2021/10/05 11:37:17;;;;;;;5.83;3.12;;;;;;;18.38;36.40;100332.36;1595413;89;21109;-65
2021/10/05 11:39:48;;;;;;;11.93;3.90;;;;;;;18.39;36.29;100341.26;1590560;89;20902;-65
2021/10/05 11:42:19;;;;;;;3.35;2.85;;;;;;;18.42;36.48;100332.73;1594236;89;20897;-67
2021/10/05 11:44:50;;;;;;;7.37;3.05;;;;;;;18.45;36.37;100329.16;1596558;89;20894;-67
2021/10/05 11:47:21;;;;;;;8.95;3.00;;;;;;;18.47;36.58;100336.23;1589271;88;20981;-66
2021/10/05 11:50:00;;;;;;;4.95;3.30;;;;;;;18.54;36.63;100330.30;1597452;89;21817;-66
2021/10/05 11:52:29;;;;;;;7.33;3.25;;;;;;;18.62;36.66;100321.71;1586985;89;20945;-66